Time;durP1;ratioP1;P1;durP2;ratioP2;P2;SDS_P1;SDS_P2;PMS_P1;PMS_P2;Temp;Humidity;BMP_temperature;BMP_pressure;BME280_temperature;BME280_humidity;BME280_pressure;Samples;Min_cycle;Max_cycle;Signal;HPM_P1;HPM_P2
2022/10/14 00:01:10;;;;;;;27.40;13.60;;;;;;;14.57;72.17;101617.72;6244844;22;20091;-71
2022/10/14 00:03:38;;;;;;;26.73;13.63;;;;;;;14.55;72.29;101619.41;6238385;22;20058;-71
2022/10/14 00:06:10;;;;;;;28.98;14.50;;;;;;;14.55;72.22;101614.19;6247727;22;20008;-72
2022/10/14 00:08:35;;;;;;;32.30;13.85;;;;;;;14.54;72.52;101617.66;6214554;22;20003;-71
2022/10/14 00:11:10;;;;;;;29.25;13.88;;;;;;;14.67;72.21;101609.91;6248369;22;20053;-71
2022/10/14 00:13:36;;;;;;;27.05;13.40;;;;;;;14.78;71.70;101595.97;6210666;22;20004;-72
2022/10/14 00:16:02;;;;;;;30.52;14.85;;;;;;;14.77;72.07;101596.84;6245543;22;20458;-72
2022/10/14 00:18:28;;;;;;;32.25;14.88;;;;;;;14.80;72.21;101585.50;6244612;22;20000;-73
2022/10/14 00:20:55;;;;;;;36.92;15.98;;;;;;;14.80;72.06;101575.00;6239775;22;20443;-71
2022/10/14 00:23:20;;;;;;;38.50;18.08;;;;;;;14.85;72.05;101574.16;6216678;22;20011;-71
2022/10/14 00:25:46;;;;;;;39.15;17.60;;;;;;;14.80;71.88;101570.63;6244800;22;20177;-71
2022/10/14 00:28:11;;;;;;;41.08;18.42;;;;;;;14.74;72.34;101557.47;6242809;22;20014;-72
2022/10/14 00:30:36;;;;;;;47.28;20.35;;;;;;;14.60;73.62;101554.72;6247965;22;20010;-72
2022/10/14 00:33:02;;;;;;;44.28;20.52;;;;;;;14.63;73.90;101559.13;6243946;22;20046;-71
2022/10/14 00:35:27;;;;;;;47.53;20.50;;;;;;;14.93;73.39;101550.59;6246290;22;20083;-71
2022/10/14 00:37:52;;;;;;;49.30;21.38;;;;;;;15.01;73.31;101546.25;6242612;22;20008;-71
2022/10/14 00:40:18;;;;;;;50.35;22.50;;;;;;;15.03;73.60;101547.16;6247994;22;20035;-73
2022/10/14 00:42:43;;;;;;;54.50;24.00;;;;;;;14.85;74.04;101549.66;6247018;22;20004;-71
2022/10/14 00:45:14;;;;;;;47.85;23.20;;;;;;;15.12;73.41;101541.97;6240636;22;20458;-70
2022/10/14 00:47:41;;;;;;;48.83;23.15;;;;;;;15.09;73.43;101541.06;6216871;22;20446;-72
2022/10/14 00:50:08;;;;;;;49.70;22.58;;;;;;;15.33;72.49;101538.53;6245101;22;20007;-72
2022/10/14 00:52:33;;;;;;;51.05;22.88;;;;;;;15.20;73.33;101545.47;6247577;22;20305;-70
2022/10/14 00:55:03;;;;;;;47.65;22.75;;;;;;;15.26;72.92;101539.38;6251834;22;20066;-72
2022/10/14 00:57:29;;;;;;;48.20;23.33;;;;;;;15.34;72.78;101535.94;6242017;22;20011;-71
2022/10/14 01:00:07;;;;;;;44.85;21.63;;;;;;;15.46;72.45;101540.34;6250247;22;20477;-71
2022/10/14 01:02:33;;;;;;;51.95;23.05;;;;;;;15.07;73.91;101537.53;6243654;22;20007;-72
2022/10/14 01:05:00;;;;;;;47.78;23.45;;;;;;;15.43;72.96;101542.97;6252980;22;20018;-71
2022/10/14 01:07:59;;;;;;;53.47;24.45;;;;;;;15.40;73.23;101542.97;6241468;22;20004;-70
2022/10/14 01:11:03;;;;;;;46.25;22.45;;;;;;;15.63;72.27;101530.81;6249668;22;20042;-71
2022/10/14 01:13:33;;;;;;;42.60;21.30;;;;;;;15.69;72.08;101530.84;6241799;22;20012;-71
2022/10/14 01:16:05;;;;;;;44.38;22.25;;;;;;;15.63;72.34;101540.44;6250542;22;20077;-73
2022/10/14 01:18:46;;;;;;;43.90;21.83;;;;;;;15.51;73.05;101548.25;6245451;22;20004;-71
2022/10/14 01:21:24;;;;;;;42.13;20.83;;;;;;;15.68;72.24;101538.69;6247820;22;20359;-72
2022/10/14 01:24:13;;;;;;;39.78;20.23;;;;;;;15.70;72.45;101534.34;6251713;22;20034;-71
2022/10/14 01:27:15;;;;;;;43.22;21.98;;;;;;;15.71;72.57;101536.97;6246867;22;20012;-71
2022/10/14 01:29:59;;;;;;;41.17;20.83;;;;;;;15.74;72.38;101528.22;6246313;22;20088;-72
2022/10/14 01:32:32;;;;;;;41.97;20.67;;;;;;;15.81;72.14;101529.97;6244288;22;20061;-72
2022/10/14 01:35:30;;;;;;;44.15;21.42;;;;;;;15.78;72.47;101532.63;6249883;22;20074;-71
2022/10/14 01:38:22;;;;;;;39.88;20.80;;;;;;;15.71;72.81;101525.59;6238982;22;20035;-71
2022/10/14 01:41:01;;;;;;;40.72;21.63;;;;;;;15.74;73.00;101521.19;6224051;22;20007;-72
2022/10/14 01:43:28;;;;;;;41.60;21.38;;;;;;;15.87;72.43;101519.47;6244742;22;20019;-71
2022/10/14 01:45:55;;;;;;;42.15;21.55;;;;;;;15.50;73.54;101513.22;6253001;22;20009;-72
2022/10/14 01:48:26;;;;;;;41.67;21.73;;;;;;;15.55;73.75;101511.53;6248390;22;20010;-71
2022/10/14 01:50:53;;;;;;;42.55;21.50;;;;;;;15.70;73.21;101508.06;6248969;22;20014;-72
2022/10/14 01:53:31;;;;;;;43.00;22.05;;;;;;;15.55;73.82;101503.66;6251092;22;20439;-70
2022/10/14 01:55:58;;;;;;;39.22;21.52;;;;;;;15.48;73.93;101503.59;6248217;22;20016;-72
2022/10/14 01:58:27;;;;;;;39.85;21.48;;;;;;;15.36;74.36;101493.91;6241823;22;20011;-71
2022/10/14 02:00:52;;;;;;;42.13;21.58;;;;;;;15.65;73.30;101499.28;6249833;22;20418;-72
2022/10/14 02:03:18;;;;;;;40.83;21.50;;;;;;;15.89;72.52;101495.81;6241771;22;20019;-70
2022/10/14 02:05:50;;;;;;;42.00;22.00;;;;;;;15.99;72.05;101495.81;6242361;22;20030;-71
2022/10/14 02:08:51;;;;;;;39.92;21.85;;;;;;;15.93;71.94;101498.44;6241492;22;20011;-71
2022/10/14 02:11:20;;;;;;;41.75;21.63;;;;;;;15.90;72.74;101502.84;6248249;22;20431;-71
2022/10/14 02:14:04;;;;;;;42.42;22.08;;;;;;;15.86;72.91;101498.47;6245165;22;20237;-71
2022/10/14 02:16:38;;;;;;;43.75;21.83;;;;;;;15.99;72.28;101500.22;6222633;22;20037;-71
2022/10/14 02:19:32;;;;;;;38.47;20.98;;;;;;;15.95;72.16;101490.56;6247957;22;20004;-72
2022/10/14 02:22:08;;;;;;;41.17;21.50;;;;;;;16.01;72.26;101488.81;6247337;22;20036;-72
2022/10/14 02:24:35;;;;;;;41.90;21.23;;;;;;;16.07;72.13;101488.84;6246965;22;20422;-72
2022/10/14 02:27:05;;;;;;;41.00;20.98;;;;;;;16.07;72.02;101485.31;6246307;22;20035;-71
2022/10/14 02:29:32;;;;;;;43.17;21.73;;;;;;;15.91;72.50;101479.19;6243044;22;20765;-71
2022/10/14 02:32:00;;;;;;;49.50;23.05;;;;;;;16.04;72.52;101473.03;6243572;22;20245;-70
2022/10/14 02:34:26;;;;;;;46.60;22.73;;;;;;;16.14;72.18;101479.19;6247710;22;20383;-71
2022/10/14 02:36:53;;;;;;;48.92;22.92;;;;;;;16.17;72.23;101471.28;6223299;22;20003;-71
2022/10/14 02:39:30;;;;;;;49.40;23.88;;;;;;;16.10;72.45;101469.56;6241106;22;20015;-71
2022/10/14 02:41:55;;;;;;;51.63;24.00;;;;;;;16.19;72.38;101467.78;6247236;22;20014;-72
2022/10/14 02:44:21;;;;;;;54.08;24.42;;;;;;;16.15;72.26;101454.66;6241732;22;20016;-71
2022/10/14 02:46:47;;;;;;;53.22;22.88;;;;;;;16.18;72.22;101457.25;6248787;22;20026;-71
2022/10/14 02:49:13;;;;;;;59.45;24.98;;;;;;;16.14;72.36;101459.03;6243575;22;20084;-72
2022/10/14 02:51:39;;;;;;;62.17;26.05;;;;;;;16.18;72.54;101452.88;6239614;22;20599;-71
2022/10/14 02:54:04;;;;;;;58.70;25.92;;;;;;;16.21;72.45;101454.66;6248004;22;20451;-71
2022/10/14 02:56:29;;;;;;;62.25;25.65;;;;;;;16.23;72.40;101443.22;6241358;22;20585;-71
2022/10/14 02:58:55;;;;;;;70.22;26.85;;;;;;;16.14;73.17;101437.97;6248600;22;20007;-71
2022/10/14 03:01:20;;;;;;;74.82;28.42;;;;;;;16.17;72.61;101440.59;6247098;22;20419;-72
2022/10/14 03:03:45;;;;;;;67.43;26.75;;;;;;;16.22;72.70;101441.47;6243902;22;20019;-71
2022/10/14 03:06:11;;;;;;;59.13;25.13;;;;;;;16.24;72.69;101436.22;6247669;22;20324;-70
2022/10/14 03:08:36;;;;;;;68.38;26.65;;;;;;;16.29;72.47;101429.19;6243325;22;20015;-70
2022/10/14 03:11:02;;;;;;;62.60;27.20;;;;;;;16.12;73.11;101429.22;6247669;22;20373;-71
2022/10/14 03:13:27;;;;;;;68.43;27.08;;;;;;;16.24;72.68;101430.94;6238813;22;20037;-73
2022/10/14 03:15:52;;;;;;;67.25;27.05;;;;;;;16.24;72.30;101420.44;6247451;22;20569;-71
2022/10/14 03:18:18;;;;;;;63.58;25.65;;;;;;;16.22;72.43;101414.31;6247111;22;20008;-71
2022/10/14 03:20:44;;;;;;;63.45;25.63;;;;;;;16.22;72.44;101409.03;6244555;22;20011;-70
2022/10/14 03:23:10;;;;;;;60.42;24.65;;;;;;;16.24;72.63;101408.16;6246060;22;20263;-73
2022/10/14 03:25:36;;;;;;;69.45;25.80;;;;;;;16.21;72.89;101413.44;6238288;22;20011;-72
2022/10/14 03:28:02;;;;;;;70.10;26.15;;;;;;;16.24;72.92;101407.28;6245093;22;20008;-70
2022/10/14 03:30:27;;;;;;;68.30;26.63;;;;;;;16.32;72.77;101402.00;6246393;22;20649;-71
2022/10/14 03:32:52;;;;;;;70.78;27.48;;;;;;;16.33;72.60;101409.91;6246170;22;20501;-71
2022/10/14 03:35:18;;;;;;;73.13;27.98;;;;;;;16.41;72.67;101400.22;6245114;22;20423;-70
2022/10/14 03:37:44;;;;;;;77.50;28.60;;;;;;;16.38;73.17;101392.34;6238060;22;20526;-73
2022/10/14 03:40:10;;;;;;;83.65;29.05;;;;;;;16.22;73.77;101388.00;6245845;22;20078;-70
2022/10/14 03:42:35;;;;;;;80.35;29.05;;;;;;;16.45;73.29;101387.94;6248671;22;20007;-71
2022/10/14 03:45:01;;;;;;;79.10;28.30;;;;;;;16.51;72.98;101388.81;6243215;22;20011;-71
2022/10/14 03:47:27;;;;;;;69.47;27.38;;;;;;;16.53;72.93;101389.66;6243955;22;20003;-70
2022/10/14 03:49:52;;;;;;;80.47;27.65;;;;;;;16.56;73.09;101386.16;6242051;22;20313;-71
2022/10/14 03:52:18;;;;;;;79.90;28.42;;;;;;;16.51;73.50;101378.28;6246793;22;20045;-71
2022/10/14 03:54:43;;;;;;;79.45;28.02;;;;;;;16.64;72.97;101373.88;6245503;22;20031;-70
2022/10/14 03:57:09;;;;;;;83.40;27.30;;;;;;;16.60;72.93;101366.88;6240195;22;20471;-71
2022/10/14 03:59:34;;;;;;;82.80;28.23;;;;;;;16.51;73.46;101377.41;6242642;22;20358;-71
2022/10/14 04:01:59;;;;;;;81.38;28.73;;;;;;;16.68;73.08;101369.47;6241825;22;20039;-71
2022/10/14 04:04:25;;;;;;;80.80;28.55;;;;;;;16.67;72.98;101368.59;6244809;22;20442;-71
2022/10/14 04:06:50;;;;;;;73.88;27.45;;;;;;;16.69;73.07;101371.22;6248250;22;20046;-72
2022/10/14 04:09:16;;;;;;;81.18;28.40;;;;;;;16.67;73.55;101365.09;6240716;22;20099;-72
2022/10/14 04:11:41;;;;;;;90.07;29.40;;;;;;;16.71;73.18;101370.31;6243253;22;20006;-71
2022/10/14 04:14:07;;;;;;;86.68;29.45;;;;;;;16.74;73.25;101361.56;6240610;22;20094;-70
2022/10/14 04:16:32;;;;;;;80.30;27.95;;;;;;;16.75;73.10;101361.56;6219559;22;20007;-71
2022/10/14 04:18:57;;;;;;;85.88;29.80;;;;;;;16.72;73.30;101360.66;6245298;22;20099;-71
2022/10/14 04:21:23;;;;;;;90.03;29.90;;;;;;;16.65;73.99;101359.81;6239464;22;20015;-71
2022/10/14 04:23:49;;;;;;;93.88;31.05;;;;;;;16.54;74.36;101353.69;6242293;22;20011;-71
2022/10/14 04:26:15;;;;;;;91.75;30.02;;;;;;;16.78;73.55;101358.00;6243339;22;20353;-71
2022/10/14 04:28:40;;;;;;;81.53;28.23;;;;;;;16.79;73.87;101351.88;6246757;22;20004;-71
2022/10/14 04:31:06;;;;;;;90.95;29.08;;;;;;;16.84;73.41;101352.72;6251171;22;20479;-69
2022/10/14 04:33:31;;;;;;;87.88;28.45;;;;;;;16.82;73.29;101354.50;6240505;22;20010;-70
2022/10/14 04:36:03;;;;;;;84.53;27.38;;;;;;;16.73;73.55;101341.38;6245140;22;20000;-71
2022/10/14 04:38:28;;;;;;;75.60;26.27;;;;;;;16.84;73.72;101342.19;6239181;22;20050;-71
2022/10/14 04:40:54;;;;;;;76.43;26.15;;;;;;;16.87;73.67;101336.91;6246309;22;20242;-71
2022/10/14 04:43:20;;;;;;;70.60;24.25;;;;;;;16.80;73.91;101337.81;6246886;22;20429;-72
2022/10/14 04:45:46;;;;;;;59.78;23.08;;;;;;;16.84;73.78;101329.03;6246378;22;20518;-71
2022/10/14 04:48:12;;;;;;;60.53;22.17;;;;;;;16.87;74.05;101326.38;6247972;22;20457;-70
2022/10/14 04:50:37;;;;;;;61.97;22.67;;;;;;;16.90;73.65;101321.09;6240142;22;20007;-70
2022/10/14 04:53:02;;;;;;;57.17;21.05;;;;;;;16.95;73.35;101316.69;6245514;22;20449;-70
2022/10/14 04:55:28;;;;;;;56.20;21.20;;;;;;;16.80;73.84;101311.50;6236193;22;20022;-70
2022/10/14 04:57:53;;;;;;;56.45;20.95;;;;;;;16.80;74.69;101316.75;6243871;22;20491;-70
2022/10/14 05:00:19;;;;;;;50.53;20.00;;;;;;;16.92;73.87;101300.91;6246328;22;20052;-70
2022/10/14 05:02:44;;;;;;;52.85;19.90;;;;;;;16.98;73.86;101306.13;6243976;22;20016;-71
2022/10/14 05:05:09;;;;;;;48.53;19.42;;;;;;;16.96;73.99;101302.63;6247884;22;20326;-71
2022/10/14 05:07:35;;;;;;;46.03;18.25;;;;;;;16.86;74.28;101303.56;6235565;22;20026;-70
2022/10/14 05:10:03;;;;;;;42.90;17.33;;;;;;;16.99;74.09;101307.88;6244226;22;20003;-70
2022/10/14 05:12:28;;;;;;;42.88;17.65;;;;;;;16.95;74.13;101303.53;6244202;22;20366;-70
2022/10/14 05:14:54;;;;;;;40.67;17.10;;;;;;;16.82;74.41;101297.44;6241801;22;20390;-69
2022/10/14 05:17:19;;;;;;;41.42;17.08;;;;;;;16.82;74.64;101296.56;6242996;22;20401;-69
2022/10/14 05:19:45;;;;;;;40.13;16.75;;;;;;;16.75;74.87;101289.59;6243733;22;20011;-69
2022/10/14 05:22:10;;;;;;;39.72;16.50;;;;;;;16.74;74.87;101288.72;6247235;22;20462;-69
2022/10/14 05:24:36;;;;;;;39.08;16.27;;;;;;;16.66;75.65;101281.72;6220440;22;20008;-70
2022/10/14 05:27:01;;;;;;;38.45;15.73;;;;;;;16.87;74.84;101285.13;6240591;22;20611;-70
2022/10/14 05:29:27;;;;;;;34.28;15.07;;;;;;;16.75;75.39;101279.94;6244130;22;20471;-69
2022/10/14 05:31:52;;;;;;;34.15;15.07;;;;;;;16.76;75.28;101267.63;6240073;22;20435;-69
2022/10/14 05:34:18;;;;;;;31.75;13.77;;;;;;;16.95;74.78;101274.56;6247978;22;20019;-70
2022/10/14 05:36:43;;;;;;;31.65;14.27;;;;;;;16.91;74.98;101265.78;6249235;22;20014;-69
2022/10/14 05:39:10;;;;;;;31.80;14.25;;;;;;;17.06;74.36;101261.31;6245627;22;20012;-69
2022/10/14 05:41:36;;;;;;;31.48;13.60;;;;;;;17.12;74.07;101259.50;6244084;22;20004;-69
2022/10/14 05:44:01;;;;;;;32.10;13.32;;;;;;;17.19;73.72;101255.94;6216729;22;20065;-70
2022/10/14 05:46:26;;;;;;;29.73;13.07;;;;;;;17.22;73.60;101257.66;6246546;22;20008;-68
2022/10/14 05:48:52;;;;;;;28.38;12.90;;;;;;;17.18;73.74;101254.19;6243017;22;20089;-70
2022/10/14 05:51:20;;;;;;;28.15;12.57;;;;;;;17.10;73.98;101249.84;6244240;22;20549;-70
2022/10/14 05:53:46;;;;;;;24.92;11.57;;;;;;;17.21;73.48;101253.28;6245664;22;20400;-70
2022/10/14 05:56:11;;;;;;;25.83;11.43;;;;;;;17.25;73.37;101260.28;6240033;22;20431;-70
2022/10/14 05:58:37;;;;;;;24.80;11.23;;;;;;;17.27;73.61;101254.09;6245917;22;20339;-70
2022/10/14 06:01:05;;;;;;;26.98;11.90;;;;;;;17.18;73.92;101259.47;6249565;22;20003;-70
2022/10/14 06:03:30;;;;;;;26.17;11.43;;;;;;;17.24;73.54;101254.13;6209894;22;20351;-70
2022/10/14 06:05:56;;;;;;;27.73;12.10;;;;;;;17.29;73.82;101254.09;6249998;22;20411;-70
2022/10/14 06:08:22;;;;;;;27.77;11.52;;;;;;;17.27;73.51;101246.19;6240534;22;20011;-69
2022/10/14 06:10:48;;;;;;;25.98;11.57;;;;;;;17.24;73.23;101246.22;6250439;22;20011;-69
2022/10/14 06:13:13;;;;;;;25.35;11.00;;;;;;;17.29;73.84;101249.69;6246585;22;20004;-69
2022/10/14 06:15:39;;;;;;;27.35;11.10;;;;;;;17.35;73.38;101248.78;6240058;22;20336;-70
2022/10/14 06:18:05;;;;;;;22.63;10.32;;;;;;;17.40;73.27;101242.56;6242874;22;20043;-70
2022/10/14 06:20:30;;;;;;;24.15;10.75;;;;;;;17.37;73.22;101239.09;6242067;22;20016;-70
2022/10/14 06:22:58;;;;;;;22.70;10.35;;;;;;;17.34;73.75;101237.34;6249091;22;20003;-70
2022/10/14 06:25:24;;;;;;;23.55;11.30;;;;;;;17.26;74.25;101233.91;6243694;22;20708;-70
2022/10/14 06:27:49;;;;;;;24.42;10.73;;;;;;;17.38;73.85;101236.44;6213620;22;20145;-70
2022/10/14 06:30:16;;;;;;;25.23;11.50;;;;;;;17.48;73.72;101239.00;6245809;22;20550;-69
2022/10/14 06:32:42;;;;;;;25.40;11.05;;;;;;;17.50;73.29;101237.25;6245844;22;20118;-70
2022/10/14 06:35:08;;;;;;;26.38;11.30;;;;;;;17.45;73.43;101231.97;6225147;22;20257;-69
2022/10/14 06:37:33;;;;;;;25.17;10.60;;;;;;;17.53;73.59;101231.91;6239193;22;20004;-69
2022/10/14 06:39:59;;;;;;;25.27;11.13;;;;;;;17.50;74.05;101222.28;6250019;22;20004;-70
2022/10/14 06:42:24;;;;;;;25.85;11.35;;;;;;;17.54;73.87;101218.72;6250109;22;20004;-70
2022/10/14 06:44:49;;;;;;;25.88;11.05;;;;;;;17.66;73.30;101215.13;6241419;22;20012;-70
2022/10/14 06:47:15;;;;;;;54.92;13.65;;;;;;;17.48;73.83;101216.16;6246160;22;20435;-70
2022/10/14 06:49:40;;;;;;;28.42;11.70;;;;;;;17.56;73.93;101221.34;6238834;22;20320;-69
2022/10/14 06:52:05;;;;;;;35.47;12.90;;;;;;;17.53;74.15;101219.63;6248988;22;20011;-70
2022/10/14 06:54:31;;;;;;;36.20;13.40;;;;;;;17.67;73.77;101212.47;6247948;22;20018;-69
2022/10/14 06:56:56;;;;;;;37.25;13.18;;;;;;;17.66;73.71;101215.13;6243793;22;20012;-68
2022/10/14 06:59:21;;;;;;;32.55;13.18;;;;;;;17.71;73.83;101215.94;6245442;22;20008;-71
2022/10/14 07:01:47;;;;;;;45.30;14.90;;;;;;;17.64;73.95;101209.88;6243572;22;20325;-71
2022/10/14 07:04:12;;;;;;;40.55;14.50;;;;;;;17.71;73.82;101206.28;6246413;22;20022;-70
2022/10/14 07:06:38;;;;;;;39.80;14.13;;;;;;;17.76;73.67;101203.59;6247611;22;20019;-69
2022/10/14 07:09:04;;;;;;;39.25;13.80;;;;;;;17.75;74.06;101207.09;6214132;22;20008;-70
2022/10/14 07:11:29;;;;;;;44.85;14.70;;;;;;;17.78;73.61;101207.09;6246094;22;20035;-69
2022/10/14 07:13:55;;;;;;;50.45;14.98;;;;;;;17.75;74.24;101207.09;6247200;22;20026;-69
2022/10/14 07:16:21;;;;;;;41.95;14.30;;;;;;;17.76;73.98;101203.59;6245807;22;20003;-70
2022/10/14 07:18:49;;;;;;;39.80;14.00;;;;;;;17.88;73.78;101208.72;6242478;22;20416;-68
2022/10/14 07:21:14;;;;;;;41.55;14.70;;;;;;;17.79;74.08;101207.09;6216707;22;20018;-70
2022/10/14 07:23:40;;;;;;;38.45;13.60;;;;;;;17.87;73.94;101196.41;6244266;22;20359;-69
2022/10/14 07:26:06;;;;;;;36.08;14.13;;;;;;;17.90;74.16;101203.44;6243796;22;20434;-70
2022/10/14 07:28:32;;;;;;;35.40;13.65;;;;;;;17.92;74.33;101206.94;6247628;22;20019;-70
2022/10/14 07:31:07;;;;;;;37.03;15.02;;;;;;;17.89;73.92;101206.97;6244489;22;20014;-70
2022/10/14 07:33:34;;;;;;;40.55;14.70;;;;;;;17.85;73.99;101203.50;6238194;22;20015;-69
2022/10/14 07:36:02;;;;;;;32.42;13.43;;;;;;;17.92;74.41;101206.94;6239339;22;20335;-69
2022/10/14 07:38:27;;;;;;;35.53;13.52;;;;;;;17.88;73.93;101214.00;6239760;22;20008;-69
2022/10/14 07:41:05;;;;;;;35.83;12.75;;;;;;;17.91;74.07;101213.97;6240180;22;20011;-70
2022/10/14 07:43:32;;;;;;;34.38;13.35;;;;;;;17.97;73.58;101213.03;6236994;22;20078;-70
2022/10/14 07:46:06;;;;;;;35.65;13.20;;;;;;;18.01;73.96;101210.34;6245034;22;20032;-70
2022/10/14 07:48:33;;;;;;;34.75;13.50;;;;;;;18.00;73.95;101208.59;6244496;22;20030;-69
2022/10/14 07:50:58;;;;;;;38.03;13.70;;;;;;;18.05;74.09;101204.13;6216418;22;20091;-69
2022/10/14 07:53:25;;;;;;;34.20;12.82;;;;;;;18.05;73.89;101205.91;6247201;22;20486;-70
2022/10/14 07:55:51;;;;;;;34.40;12.95;;;;;;;18.11;74.06;101203.19;6241091;22;20066;-70
2022/10/14 07:58:26;;;;;;;30.85;13.02;;;;;;;18.13;73.73;101204.03;6246113;22;20427;-70
2022/10/14 08:00:52;;;;;;;29.77;12.40;;;;;;;18.14;73.63;101204.03;6245362;22;20301;-70
2022/10/14 08:03:19;;;;;;;31.27;12.55;;;;;;;18.14;73.60;101204.03;6244944;22;20046;-70
2022/10/14 08:05:46;;;;;;;35.15;12.98;;;;;;;18.04;74.09;101202.41;6250548;22;20023;-71
2022/10/14 08:08:12;;;;;;;34.00;12.65;;;;;;;18.08;73.65;101193.53;6241847;22;20363;-70
2022/10/14 08:10:39;;;;;;;35.08;13.63;;;;;;;17.95;74.49;101206.88;6247751;22;20511;-70
2022/10/14 08:13:04;;;;;;;38.50;14.32;;;;;;;18.04;74.42;101202.41;6245333;22;20042;-70
2022/10/14 08:15:40;;;;;;;37.63;13.45;;;;;;;18.15;74.18;101203.13;6240727;22;20036;-70
2022/10/14 08:18:10;;;;;;;40.35;14.63;;;;;;;18.12;74.00;101203.16;6243882;22;20011;-70
2022/10/14 08:20:36;;;;;;;37.92;13.52;;;;;;;18.26;73.84;101200.34;6240520;22;20012;-70
2022/10/14 08:23:02;;;;;;;37.65;14.02;;;;;;;18.24;74.36;101196.84;6245664;22;20360;-70
2022/10/14 08:25:27;;;;;;;48.38;14.68;;;;;;;18.35;74.28;101199.38;6238731;22;20012;-70
2022/10/14 08:27:56;;;;;;;40.53;14.00;;;;;;;18.43;74.18;101198.34;6244990;22;20085;-69
2022/10/14 08:30:21;;;;;;;38.85;13.35;;;;;;;18.48;73.91;101199.16;6247304;22;20269;-69
2022/10/14 08:32:47;;;;;;;32.40;12.73;;;;;;;18.49;73.81;101206.19;6242544;22;20121;-71
2022/10/14 08:35:12;;;;;;;36.40;13.93;;;;;;;18.51;73.69;101199.13;6246468;22;20415;-72
2022/10/14 08:37:38;;;;;;;31.17;12.20;;;;;;;18.56;73.54;101201.72;6238894;22;20259;-69
2022/10/14 08:40:04;;;;;;;33.17;12.88;;;;;;;18.41;74.13;101196.66;6247629;22;20367;-70
2022/10/14 08:43:00;;;;;;;34.15;12.77;;;;;;;18.47;73.97;101196.56;6248642;22;20008;-70
2022/10/14 08:45:34;;;;;;;28.20;11.38;;;;;;;18.63;73.42;101188.44;6237887;22;20011;-69
2022/10/14 08:48:07;;;;;;;32.75;12.48;;;;;;;18.64;73.57;101194.59;6243815;22;20637;-69
2022/10/14 08:50:40;;;;;;;31.73;12.60;;;;;;;18.52;74.03;101186.81;6244507;22;20015;-71
2022/10/14 08:53:11;;;;;;;30.38;12.02;;;;;;;18.46;74.34;101190.41;6245882;22;20461;-70
2022/10/14 08:55:44;;;;;;;30.73;11.95;;;;;;;18.56;74.01;101180.59;6236727;22;20003;-70
2022/10/14 08:58:30;;;;;;;30.48;12.10;;;;;;;18.50;73.80;101180.66;6242989;22;20011;-70
2022/10/14 09:00:59;;;;;;;27.88;11.98;;;;;;;18.66;73.79;101184.00;6247676;22;20057;-70
2022/10/14 09:03:32;;;;;;;31.08;11.80;;;;;;;18.70;73.90;101183.94;6234997;22;20566;-69
2022/10/14 09:06:13;;;;;;;26.98;13.40;;;;;;;18.64;73.41;101184.91;6247511;22;20008;-69
2022/10/14 09:08:46;;;;;;;28.83;11.93;;;;;;;18.70;73.54;101185.69;6242707;22;20008;-70
2022/10/14 09:11:18;;;;;;;28.58;11.15;;;;;;;18.54;73.90;101177.09;6247627;22;20003;-70
2022/10/14 09:14:05;;;;;;;24.80;11.00;;;;;;;18.56;73.86;101170.03;6244322;22;20430;-69
2022/10/14 09:16:35;;;;;;;29.98;11.55;;;;;;;18.57;73.63;101166.53;6246816;22;20008;-69
2022/10/14 09:19:35;;;;;;;27.40;11.82;;;;;;;18.40;74.11;101168.50;6249624;22;20375;-70
2022/10/14 09:22:01;;;;;;;23.70;10.25;;;;;;;18.44;74.18;101162.28;6250444;22;20076;-69
2022/10/14 09:24:29;;;;;;;24.25;10.95;;;;;;;18.57;73.50;101163.88;6250348;22;20444;-69
2022/10/14 09:27:01;;;;;;;24.05;10.48;;;;;;;18.55;73.75;101169.16;6241074;22;20132;-70
2022/10/14 09:29:28;;;;;;;25.67;11.25;;;;;;;18.48;74.25;101170.13;6247733;22;20008;-69
2022/10/14 09:32:02;;;;;;;27.02;11.45;;;;;;;18.23;74.39;101166.97;6244363;22;20011;-70
2022/10/14 09:34:33;;;;;;;24.95;11.38;;;;;;;18.54;73.85;101163.91;6248242;22;20027;-70
2022/10/14 09:37:21;;;;;;;29.70;11.55;;;;;;;18.52;74.43;101169.19;6246288;22;20004;-70
2022/10/14 09:39:48;;;;;;;24.30;11.52;;;;;;;18.62;73.88;101167.31;6240948;22;20066;-68
2022/10/14 09:42:23;;;;;;;25.48;11.57;;;;;;;18.52;74.15;101174.47;6217998;22;20008;-70
2022/10/14 09:45:06;;;;;;;;;;;;;;;18.64;73.78;101165.53;6240679;22;20018;-70
2022/10/14 09:47:37;;;;;;;24.52;10.65;;;;;;;18.52;73.91;101166.56;6239449;22;20200;-69
2022/10/14 09:50:08;;;;;;;22.70;10.85;;;;;;;18.58;73.94;101163.88;6242255;22;20401;-70
2022/10/14 09:52:35;;;;;;;23.77;10.88;;;;;;;18.56;73.96;101160.38;6245692;22;20003;-70
2022/10/14 09:55:01;;;;;;;22.77;10.45;;;;;;;18.65;73.82;101162.00;6222546;22;20018;-70
2022/10/14 09:57:27;;;;;;;22.90;10.73;;;;;;;18.70;73.94;101159.28;6237630;22;20038;-70
2022/10/14 09:59:59;;;;;;;27.35;11.50;;;;;;;18.43;74.37;101166.69;6245749;22;20756;-69
2022/10/14 10:02:37;;;;;;;20.83;9.80;;;;;;;18.60;74.07;101164.69;6241788;22;20375;-70
2022/10/14 10:05:21;;;;;;;21.02;10.40;;;;;;;18.68;73.59;101163.72;6246755;22;20125;-70
2022/10/14 10:08:00;;;;;;;;;;;;;;;18.64;73.86;101157.63;6241976;22;20541;-69
2022/10/14 10:10:25;;;;;;;19.33;9.48;;;;;;;18.74;73.62;101153.94;6246757;22;20243;-70
2022/10/14 10:12:50;;;;;;;20.55;10.27;;;;;;;18.62;73.70;101155.00;6247082;22;20011;-69
2022/10/14 10:15:20;;;;;;;20.73;10.15;;;;;;;18.77;73.42;101153.03;6243765;22;20440;-69
2022/10/14 10:17:47;;;;;;;17.27;9.80;;;;;;;18.85;73.68;101157.25;6247653;22;20432;-70
2022/10/14 10:20:32;;;;;;;19.17;10.63;;;;;;;18.61;74.10;101155.88;6244897;22;20015;-69
2022/10/14 10:23:27;;;;;;;18.10;10.52;;;;;;;18.74;73.84;101156.56;6249003;22;20007;-69
2022/10/14 10:25:53;;;;;;;19.25;10.40;;;;;;;18.57;74.63;101148.91;6243038;22;20065;-70
2022/10/14 10:28:30;;;;;;;19.95;10.57;;;;;;;18.53;74.50;101141.91;6249448;22;20003;-72
2022/10/14 10:31:11;;;;;;;19.05;10.40;;;;;;;18.50;75.24;101148.97;6248879;22;20008;-70
2022/10/14 10:34:00;;;;;;;15.77;9.68;;;;;;;18.77;74.18;101148.59;6240272;22;20019;-70
2022/10/14 10:36:34;;;;;;;16.98;9.73;;;;;;;18.75;73.84;101134.53;6248107;22;20003;-69
2022/10/14 10:39:00;;;;;;;;;;;;;;;18.86;74.17;101137.00;6215707;22;20011;-69
2022/10/14 10:41:43;;;;;;;14.33;9.07;;;;;;;18.94;73.94;101135.13;6243694;22;19907;-70
2022/10/14 10:44:39;;;;;;;15.45;9.02;;;;;;;18.69;73.89;101136.41;6243520;22;20290;-70
2022/10/14 10:47:04;;;;;;;16.00;9.02;;;;;;;18.95;73.64;101139.50;6246224;22;20495;-70
2022/10/14 10:49:37;;;;;;;15.05;8.82;;;;;;;18.95;73.64;101132.47;6212078;22;20011;-70
2022/10/14 10:52:13;;;;;;;14.55;8.68;;;;;;;18.79;74.01;101128.31;6247661;22;20014;-70
2022/10/14 10:55:02;;;;;;;15.82;8.75;;;;;;;18.76;73.76;101125.72;6248257;22;20646;-69
2022/10/14 10:57:52;;;;;;;14.57;8.27;;;;;;;18.85;73.88;101130.84;6236822;22;20399;-70
2022/10/14 11:00:22;;;;;;;14.45;8.32;;;;;;;18.96;73.89;101133.34;6248084;22;20479;-70
2022/10/14 11:02:59;;;;;;;12.57;8.23;;;;;;;18.86;73.48;101129.06;6244758;22;20054;-70
2022/10/14 11:05:33;;;;;;;12.45;7.85;;;;;;;18.98;73.39;101120.94;6217159;22;20044;-70
2022/10/14 11:14:09;;;;;;;14.00;8.20;;;;;;;19.35;73.77;101115.88;6208662;22;20016;-70
2022/10/14 11:16:45;;;;;;;14.82;8.80;;;;;;;19.28;73.49;101112.47;6238592;22;20482;-70
2022/10/14 11:19:16;;;;;;;15.00;8.50;;;;;;;19.21;73.00;101112.63;6245187;22;20012;-70
2022/10/14 11:21:53;;;;;;;15.07;9.50;;;;;;;19.26;72.48;101116.94;6240574;22;20065;-70
2022/10/14 11:24:53;;;;;;;11.90;7.75;;;;;;;19.27;72.56;101110.72;6244084;22;20018;-69
2022/10/14 11:27:47;;;;;;;15.32;8.73;;;;;;;19.42;72.54;101112.22;6239472;22;20509;-70
2022/10/14 11:30:14;;;;;;;15.13;8.73;;;;;;;19.18;73.57;101105.63;6245950;22;20003;-70